createdAt,value
2024-05-09T00:01:22.226Z,10.85
2024-05-09T00:04:27.490Z,10.98
2024-05-09T00:07:33.070Z,10.68
2024-05-09T00:10:41.769Z,10.81
2024-05-09T00:13:47.340Z,10.68
2024-05-09T00:16:52.935Z,10.60
2024-05-09T00:19:58.529Z,10.76
2024-05-09T00:23:04.343Z,10.67
2024-05-09T00:26:12.212Z,10.58
2024-05-09T00:29:17.840Z,10.39
2024-05-09T00:32:23.679Z,10.53
2024-05-09T00:35:29.213Z,10.20
2024-05-09T00:38:34.741Z,10.20
2024-05-09T00:41:43.064Z,10.08
2024-05-09T00:44:48.581Z,9.91
2024-05-09T00:47:53.938Z,9.89
2024-05-09T00:51:00.615Z,9.71
2024-05-09T00:54:06.408Z,9.57
2024-05-09T00:57:14.662Z,9.47
2024-05-09T01:00:27.241Z,9.21
2024-05-09T01:03:41.698Z,9.37
2024-05-09T01:06:47.436Z,9.12
2024-05-09T01:09:53.106Z,9.14
2024-05-09T01:13:01.314Z,9.02
2024-05-09T01:16:07.411Z,8.89
2024-05-09T01:19:21.568Z,8.81
2024-05-09T01:22:29.199Z,9.03
2024-05-09T01:25:38.052Z,8.70
2024-05-09T01:28:44.349Z,8.71
2024-05-09T01:31:52.303Z,8.68
2024-05-09T01:34:58.078Z,8.83
2024-05-09T01:38:03.837Z,8.69
2024-05-09T01:41:12.150Z,8.72
2024-05-09T01:44:18.141Z,8.66
2024-05-09T01:47:23.879Z,8.64
2024-05-09T01:50:37.890Z,8.57
2024-05-09T01:53:46.769Z,8.46
2024-05-09T01:56:55.050Z,8.43
2024-05-09T02:00:00.625Z,8.32
2024-05-09T02:03:06.589Z,8.59
2024-05-09T02:06:12.225Z,8.50
2024-05-09T02:09:18.537Z,8.25
2024-05-09T02:12:26.832Z,8.06
2024-05-09T02:15:32.461Z,8.09
2024-05-09T02:18:37.991Z,7.82
2024-05-09T02:21:43.477Z,7.92
2024-05-09T02:24:48.951Z,7.88
2024-05-09T02:27:57.136Z,8.02
2024-05-09T02:31:02.636Z,8.16
2024-05-09T02:34:08.440Z,7.80
2024-05-09T02:37:13.900Z,7.81
2024-05-09T02:40:25.183Z,7.65
2024-05-09T02:43:37.250Z,7.51
2024-05-09T02:46:42.957Z,7.64
2024-05-09T02:49:45.919Z,7.53
2024-05-09T02:52:51.709Z,7.44
2024-05-09T02:55:54.605Z,7.33
2024-05-09T02:59:02.457Z,7.36
2024-05-09T03:02:05.176Z,7.34
2024-05-09T03:05:10.382Z,7.28
2024-05-09T03:08:15.964Z,7.27
2024-05-09T03:11:22.855Z,7.31
2024-05-09T03:14:31.517Z,7.22
2024-05-09T03:17:34.493Z,7.14
2024-05-09T03:20:40.564Z,7.01
2024-05-09T03:23:46.769Z,6.94
2024-05-09T03:26:49.770Z,6.98
2024-05-09T03:29:57.875Z,6.92
2024-05-09T03:34:20.731Z,6.74
2024-05-09T03:37:26.292Z,7.17
2024-05-09T03:40:31.579Z,6.83
2024-05-09T03:43:37.152Z,6.74
2024-05-09T03:46:40.283Z,6.70
2024-05-09T03:49:48.584Z,6.82
2024-05-09T03:52:54.159Z,6.75
2024-05-09T03:55:57.376Z,6.65
2024-05-09T03:59:05.293Z,6.61
2024-05-09T04:02:10.750Z,6.65
2024-05-09T04:05:19.174Z,6.89
2024-05-09T04:08:22.370Z,6.96
2024-05-09T04:11:28.326Z,6.81
2024-05-09T04:14:31.008Z,7.30
2024-05-09T04:17:36.410Z,6.86
2024-05-09T04:20:42.286Z,7.23
2024-05-09T04:23:47.512Z,6.84
2024-05-09T04:26:53.095Z,6.95
2024-05-09T04:29:56.042Z,7.32
2024-05-09T04:33:01.670Z,7.34
2024-05-09T04:36:07.979Z,7.10
2024-05-09T04:39:13.524Z,7.73
2024-05-09T04:42:16.436Z,7.35
2024-05-09T04:45:21.915Z,7.38
2024-05-09T04:48:27.713Z,7.58
2024-05-09T04:51:33.284Z,7.63
2024-05-09T04:54:38.719Z,7.64
2024-05-09T04:57:41.640Z,7.69
2024-05-09T05:00:47.030Z,7.87
2024-05-09T05:03:50.146Z,8.13
2024-05-09T05:07:02.121Z,8.27
2024-05-09T05:10:09.326Z,8.43
2024-05-09T05:13:24.692Z,8.53
2024-05-09T05:16:30.737Z,8.46
2024-05-09T05:19:34.074Z,8.71
2024-05-09T05:22:43.551Z,8.55
2024-05-09T05:25:48.426Z,8.47
2024-05-09T05:28:54.623Z,8.49
2024-05-09T05:31:57.892Z,8.82
2024-05-09T05:35:03.584Z,8.82
2024-05-09T05:38:12.499Z,8.90
2024-05-09T05:41:15.480Z,9.02
2024-05-09T05:44:21.467Z,9.11
2024-05-09T05:47:27.744Z,9.16
2024-05-09T05:50:36.432Z,9.39
2024-05-09T05:53:44.701Z,9.38
2024-05-09T05:56:50.239Z,9.48
2024-05-09T05:59:53.867Z,9.86
2024-05-09T06:02:59.490Z,10.12
2024-05-09T06:06:05.598Z,10.32
2024-05-09T06:09:15.361Z,10.47
2024-05-09T06:12:18.814Z,10.70
2024-05-09T06:15:24.489Z,10.91
2024-05-09T06:18:27.634Z,11.15
2024-05-09T06:21:35.286Z,11.26
2024-05-09T06:24:43.509Z,11.51
2024-05-09T06:27:49.539Z,11.82
2024-05-09T06:30:52.497Z,12.04
2024-05-09T06:33:58.223Z,11.94
2024-05-09T06:37:01.340Z,12.11
2024-05-09T06:40:12.512Z,12.29
2024-05-09T06:43:19.286Z,12.67
2024-05-09T06:46:25.935Z,12.49
2024-05-09T06:49:30.139Z,12.27
2024-05-09T06:52:36.047Z,13.00
2024-05-09T06:55:45.262Z,12.48
2024-05-09T06:58:51.069Z,12.72
2024-05-09T07:01:58.269Z,12.82
2024-05-09T07:05:01.534Z,13.16
2024-05-09T07:08:09.890Z,13.14
2024-05-09T07:11:18.255Z,13.36
2024-05-09T07:14:21.216Z,13.48
2024-05-09T07:17:27.128Z,13.67
2024-05-09T07:20:34.572Z,13.87
2024-05-09T07:23:45.146Z,14.05
2024-05-09T07:26:52.752Z,14.05
2024-05-09T10:27:46.579Z,18.28
2024-05-09T10:31:00.802Z,18.17
2024-05-09T10:34:10.506Z,18.02
2024-05-09T10:37:14.273Z,18.40
2024-05-09T10:40:26.415Z,18.45
2024-05-09T10:43:39.247Z,18.90
2024-05-09T10:46:45.132Z,18.45
2024-05-09T10:49:48.764Z,18.31
2024-05-09T10:52:55.589Z,18.25
2024-05-09T10:55:59.970Z,18.49
2024-05-09T10:59:08.575Z,18.59
2024-05-09T11:02:12.408Z,18.40
2024-05-09T11:05:19.033Z,18.51
2024-05-09T11:08:23.276Z,18.33
2024-05-09T11:11:29.222Z,18.67
2024-05-09T11:14:34.872Z,18.21
2024-05-09T11:17:40.859Z,18.48
2024-05-09T11:20:44.073Z,18.90
2024-05-09T11:23:50.528Z,18.65
2024-05-09T11:26:53.624Z,18.81
2024-05-09T11:30:01.905Z,19.22
2024-05-09T11:33:05.714Z,19.28
2024-05-09T11:36:11.332Z,19.39
2024-05-09T11:39:14.778Z,18.69
2024-05-09T11:42:22.153Z,19.33
2024-05-09T11:45:27.547Z,19.00
2024-05-09T11:48:33.466Z,18.46
2024-05-09T11:51:36.546Z,18.95
2024-05-09T11:54:42.074Z,18.65
2024-05-09T11:57:45.373Z,19.09
2024-05-09T12:00:53.635Z,19.32
2024-05-09T12:03:59.499Z,19.49
2024-05-09T12:07:02.616Z,19.25
2024-05-09T12:10:14.130Z,19.49
2024-05-09T12:13:25.059Z,19.74
2024-05-09T12:16:30.559Z,19.58
2024-05-09T12:19:36.469Z,19.59
2024-05-09T12:22:39.511Z,19.70
2024-05-09T12:25:45.030Z,19.65
2024-05-09T12:28:47.965Z,19.24
2024-05-09T12:36:59.058Z,19.12
2024-05-09T12:40:06.710Z,19.47
2024-05-09T12:43:15.198Z,19.37
2024-05-09T12:46:21.301Z,19.45
2024-05-09T12:49:27.033Z,19.52
2024-05-09T12:52:32.727Z,20.06
2024-05-09T12:55:44.502Z,19.92
2024-05-09T12:59:07.424Z,19.20
2024-05-09T13:02:10.496Z,19.63
2024-05-09T13:05:18.776Z,19.31
2024-05-09T13:08:22.009Z,19.76
2024-05-09T13:11:27.647Z,19.75
2024-05-09T13:14:30.799Z,19.74
2024-05-09T13:17:36.160Z,19.81
2024-05-09T13:20:42.534Z,19.83
2024-05-09T13:23:51.422Z,19.78
2024-05-09T13:26:57.574Z,19.91
2024-05-09T13:30:07.786Z,19.71
2024-05-09T13:33:16.851Z,19.85
2024-05-09T13:36:29.585Z,19.56
2024-05-09T13:39:46.646Z,20.01
2024-05-09T13:42:55.163Z,20.31
2024-05-09T13:46:13.014Z,20.14
2024-05-09T13:50:08.984Z,20.31
2024-05-09T14:02:55.658Z,19.76
2024-05-09T14:11:05.962Z,19.66
2024-05-09T14:14:18.473Z,19.99
2024-05-09T14:17:21.706Z,20.22
2024-05-09T14:20:32.059Z,20.11
2024-05-09T14:23:38.175Z,20.29
2024-05-09T14:26:43.672Z,20.19
2024-05-09T14:29:46.561Z,20.11
2024-05-09T14:32:52.155Z,19.97
2024-05-09T14:35:58.006Z,20.10
2024-05-09T14:39:03.810Z,20.15
2024-05-09T14:42:06.877Z,20.07
2024-05-09T14:45:12.326Z,19.90
2024-05-09T14:48:19.926Z,19.78
2024-05-09T14:51:28.375Z,19.95
2024-05-09T14:54:32.042Z,19.83
2024-05-09T14:57:37.854Z,20.06
2024-05-09T15:00:46.495Z,20.20
2024-05-09T15:03:57.242Z,20.04
2024-05-09T15:07:03.248Z,20.11
2024-05-09T15:10:16.519Z,19.96
2024-05-09T15:13:32.474Z,20.23
2024-05-09T15:16:38.156Z,19.95
2024-05-09T15:19:41.470Z,19.81
2024-05-09T15:22:49.448Z,19.72
2024-05-09T15:25:52.008Z,19.55
2024-05-09T15:28:57.559Z,19.41
2024-05-09T15:34:26.968Z,19.46
2024-05-09T15:37:32.724Z,19.44
2024-05-09T15:40:39.868Z,19.41
2024-05-09T15:43:46.839Z,19.40
2024-05-09T15:46:50.022Z,19.46
2024-05-09T15:49:58.687Z,19.65
2024-05-09T15:53:04.695Z,19.51
2024-05-09T15:56:53.582Z,19.43
2024-05-09T16:00:00.064Z,19.72
2024-05-09T16:03:08.893Z,19.99
2024-05-09T16:06:23.583Z,19.77
2024-05-09T16:09:29.503Z,19.85
2024-05-09T16:12:35.122Z,19.71
2024-05-09T16:15:38.137Z,19.89
2024-05-09T16:18:44.747Z,19.66
2024-05-09T16:21:50.462Z,19.50
2024-05-09T16:24:56.291Z,19.44
2024-05-09T16:27:59.673Z,19.66
2024-05-09T16:31:05.383Z,19.70
2024-05-09T16:34:11.091Z,19.80
2024-05-09T16:37:17.026Z,19.72
2024-05-09T16:40:30.280Z,19.73
2024-05-09T16:43:42.963Z,19.59
2024-05-09T16:46:46.510Z,19.43
2024-05-09T16:49:52.451Z,19.55
2024-05-09T16:53:56.204Z,19.49
2024-05-09T16:57:09.629Z,19.42
2024-05-09T17:00:22.686Z,19.24
2024-05-09T17:03:36.944Z,19.34
2024-05-09T17:06:39.808Z,19.44
2024-05-09T17:09:45.581Z,19.22
2024-05-09T17:12:53.833Z,19.21
2024-05-09T17:15:59.203Z,19.08
2024-05-09T17:19:05.047Z,19.07
2024-05-09T17:22:13.988Z,19.06
2024-05-09T17:25:17.258Z,19.16
2024-05-09T17:28:25.969Z,19.26
2024-05-09T17:31:29.114Z,19.20
2024-05-09T17:34:35.187Z,19.01
2024-05-09T17:37:40.814Z,18.77
2024-05-09T17:40:43.814Z,18.61
2024-05-09T17:43:52.086Z,18.65
2024-05-09T17:46:55.139Z,18.75
2024-05-09T17:50:00.920Z,18.93
2024-05-09T17:53:04.559Z,18.60
2024-05-09T17:56:10.830Z,18.37
2024-05-09T17:59:16.449Z,18.50
2024-05-09T18:02:22.303Z,18.60
2024-05-09T18:05:25.422Z,18.23
2024-05-09T18:08:34.038Z,17.88
2024-05-09T18:11:40.739Z,17.47
2024-05-09T18:14:49.078Z,17.23
2024-05-09T18:17:55.001Z,17.04
2024-05-09T18:21:00.736Z,16.97
2024-05-09T18:24:03.994Z,16.83
2024-05-09T18:27:09.512Z,16.64
2024-05-09T18:30:24.087Z,16.37
2024-05-09T18:33:37.332Z,16.37
2024-05-09T18:36:40.528Z,16.34
2024-05-09T18:39:46.826Z,16.24
2024-05-09T18:42:49.505Z,16.12
2024-05-09T18:45:58.761Z,16.08
2024-05-09T18:49:30.307Z,15.95
2024-05-09T18:52:59.843Z,15.89
2024-05-09T18:56:06.592Z,15.81
2024-05-09T18:59:09.642Z,15.78
2024-05-09T19:02:18.215Z,15.55
2024-05-09T19:05:21.520Z,15.44
2024-05-09T19:08:28.443Z,15.34
2024-05-09T19:11:31.453Z,15.38
2024-05-09T19:14:37.065Z,15.26
2024-05-09T19:17:42.920Z,15.24
2024-05-09T19:20:49.323Z,14.84
2024-05-09T19:23:52.691Z,15.01
2024-05-09T19:26:58.579Z,15.01
2024-05-09T19:35:00.295Z,14.61
2024-05-09T19:38:03.864Z,14.82
2024-05-09T19:41:09.545Z,14.58
2024-05-09T19:44:12.671Z,14.56
2024-05-09T19:47:18.554Z,14.48
2024-05-09T19:50:32.153Z,14.29
2024-05-09T19:53:45.669Z,14.21
2024-05-09T19:56:51.315Z,14.10
2024-05-09T19:59:54.732Z,14.02
2024-05-09T20:03:00.515Z,13.88
2024-05-09T20:06:06.574Z,13.90
2024-05-09T20:09:12.303Z,13.95
2024-05-09T20:12:15.241Z,13.93
2024-05-09T20:15:20.891Z,13.63
2024-05-09T20:18:24.066Z,13.62
2024-05-09T20:21:32.620Z,13.57
2024-05-09T20:24:35.595Z,13.42
2024-05-09T20:27:41.262Z,13.67
2024-05-09T20:30:46.876Z,13.34
2024-05-09T20:33:50.376Z,13.21
2024-05-09T20:36:58.832Z,13.80
2024-05-09T20:40:09.798Z,13.48
2024-05-09T20:43:15.142Z,13.32
2024-05-09T20:46:20.931Z,13.22
2024-05-09T20:49:26.734Z,12.89
2024-05-09T20:52:32.005Z,12.89
2024-05-09T20:55:37.726Z,12.76
2024-05-09T20:58:43.213Z,12.71
2024-05-09T21:01:49.206Z,12.90
2024-05-09T21:04:55.338Z,12.71
2024-05-09T21:08:01.576Z,12.77
2024-05-09T21:11:07.489Z,12.54
2024-05-09T21:14:10.388Z,12.58
2024-05-09T21:17:15.749Z,12.51
2024-05-09T21:20:24.247Z,12.52
2024-05-09T21:23:39.370Z,12.19
2024-05-09T21:26:44.945Z,12.07
2024-05-09T21:29:47.986Z,12.07
2024-05-09T21:34:26.440Z,11.73
2024-05-09T21:37:29.578Z,11.74
2024-05-09T21:40:36.771Z,11.57
2024-05-09T21:43:40.445Z,11.66
2024-05-09T21:46:45.990Z,11.70
2024-05-09T21:49:51.746Z,11.67
2024-05-09T21:52:57.260Z,11.62
2024-05-09T21:56:00.230Z,11.56
2024-05-09T21:59:05.799Z,11.60
2024-05-09T22:02:08.849Z,11.56
2024-05-09T22:05:17.685Z,11.40
2024-05-09T22:08:22.971Z,11.33
2024-05-09T22:11:25.982Z,11.30
2024-05-09T22:14:31.488Z,11.24
2024-05-09T22:17:34.077Z,11.21
2024-05-09T22:20:45.652Z,11.05
2024-05-09T22:23:49.070Z,11.11
2024-05-09T22:26:55.485Z,11.17
2024-05-09T22:30:11.787Z,11.04
2024-05-09T22:33:20.281Z,10.92
2024-05-09T22:36:26.044Z,10.95
2024-05-09T22:39:31.252Z,10.94
2024-05-09T22:42:34.322Z,10.82
2024-05-09T22:45:39.573Z,10.75
2024-05-09T22:48:42.970Z,10.64
2024-05-09T22:51:51.351Z,10.72
2024-05-09T22:54:54.327Z,10.51
2024-05-09T22:58:00.114Z,10.66
2024-05-09T23:01:06.311Z,10.79
2024-05-09T23:04:09.047Z,10.51
2024-05-09T23:07:17.355Z,10.46
2024-05-09T23:10:27.751Z,10.44
2024-05-09T23:13:38.202Z,10.23
2024-05-09T23:16:44.922Z,10.13
2024-05-09T23:19:48.183Z,9.99
2024-05-09T23:22:56.360Z,9.87
2024-05-09T23:26:01.861Z,9.79
2024-05-09T23:29:05.208Z,9.82
2024-05-09T23:32:20.393Z,9.95
2024-05-09T23:35:23.468Z,9.91
2024-05-09T23:38:31.624Z,9.89
2024-05-09T23:41:34.515Z,9.96
2024-05-09T23:44:39.998Z,9.81
2024-05-09T23:47:43.603Z,10.01
2024-05-09T23:50:49.477Z,9.66
2024-05-09T23:53:54.980Z,9.69
2024-05-09T23:57:00.567Z,9.66
